Time;durP1;ratioP1;P1;durP2;ratioP2;P2;SDS_P1;SDS_P2;PMS_P1;PMS_P2;Temp;Humidity;BMP_temperature;BMP_pressure;BME280_temperature;BME280_humidity;BME280_pressure;Samples;Min_cycle;Max_cycle;Signal;HPM_P1;HPM_P2
2022/06/09 00:00:30;;;;;;;3.27;2.10;;;15.20;99.90;;;;;;4948370;28;20214;-75
2022/06/09 00:03:00;;;;;;;1.90;1.60;;;15.10;99.90;;;;;;4948067;28;20198;-76
2022/06/09 00:05:31;;;;;;;2.47;2.00;;;15.10;99.90;;;;;;4948580;28;20554;-76
2022/06/09 00:07:59;;;;;;;3.57;2.10;;;15.10;99.90;;;;;;4954603;28;20204;-77
2022/06/09 00:10:30;;;;;;;2.97;2.20;;;15.00;99.90;;;;;;4949891;28;20229;-76
2022/06/09 00:12:58;;;;;;;6.90;2.17;;;15.00;99.90;;;;;;4945369;28;20373;-77
2022/06/09 00:15:25;;;;;;;4.00;2.00;;;14.90;99.90;;;;;;4958394;28;20541;-78
2022/06/09 00:17:52;;;;;;;4.60;1.90;;;14.80;99.90;;;;;;4956909;28;20244;-75
2022/06/09 00:20:18;;;;;;;4.77;2.13;;;14.80;99.90;;;;;;4952185;28;20222;-76
2022/06/09 00:22:45;;;;;;;2.60;2.10;;;14.60;99.90;;;;;;4956990;28;20209;-76
2022/06/09 00:25:12;;;;;;;2.80;2.07;;;14.70;99.90;;;;;;4956348;28;20214;-76
2022/06/09 00:27:40;;;;;;;3.47;1.80;;;14.60;99.90;;;;;;4960845;28;20206;-76
2022/06/09 00:30:10;;;;;;;4.03;2.23;;;14.60;99.90;;;;;;4960167;28;20202;-76
2022/06/09 00:32:37;;;;;;;3.40;2.40;;;14.70;99.90;;;;;;4950977;28;20574;-75
2022/06/09 00:35:04;;;;;;;2.87;2.20;;;14.60;99.90;;;;;;4961985;28;20213;-76
2022/06/09 00:37:31;;;;;;;3.67;2.10;;;14.60;99.90;;;;;;4966998;28;20206;-75
2022/06/09 00:39:59;;;;;;;4.30;2.10;;;14.60;99.90;;;;;;4951408;28;20198;-76
2022/06/09 00:42:26;;;;;;;2.70;2.10;;;14.70;99.90;;;;;;4964265;28;20668;-76
2022/06/09 00:44:53;;;;;;;3.57;2.07;;;14.70;99.90;;;;;;4957422;28;20202;-77
2022/06/09 00:47:32;;;;;;;3.70;2.20;;;14.70;99.90;;;;;;4964930;28;20210;-77
2022/06/09 00:50:15;;;;;;;3.07;1.67;;;14.70;99.90;;;;;;4961351;28;21398;-77
2022/06/09 00:52:48;;;;;;;2.90;2.13;;;14.70;99.90;;;;;;4955750;28;20217;-77
2022/06/09 00:55:20;;;;;;;4.37;2.40;;;14.60;99.90;;;;;;4957167;28;20202;-76
2022/06/09 00:57:55;;;;;;;2.60;2.10;;;14.60;99.90;;;;;;4961353;28;20222;-77
2022/06/09 01:00:28;;;;;;;3.57;2.30;;;14.60;99.90;;;;;;4957513;28;20214;-76
2022/06/09 01:02:58;;;;;;;3.57;2.20;;;14.50;99.90;;;;;;4953762;28;20261;-76
2022/06/09 01:05:29;;;;;;;4.43;2.27;;;14.40;99.90;;;;;;4952757;28;20325;-76
2022/06/09 01:08:00;;;;;;;3.90;2.60;;;14.40;99.90;;;;;;4962851;28;20230;-76
2022/06/09 01:10:30;;;;;;;4.47;2.70;;;14.30;99.90;;;;;;4947572;28;20488;-76
2022/06/09 01:12:58;;;;;;;4.07;2.33;;;14.30;99.90;;;;;;4954254;28;20724;-76
2022/06/09 01:15:35;;;;;;;3.57;2.30;;;14.20;99.90;;;;;;4958358;28;20206;-76
2022/06/09 01:18:24;;;;;;;3.40;2.40;;;14.10;99.90;;;;;;4956097;28;20213;-77
2022/06/09 01:21:24;;;;;;;4.20;2.40;;;14.00;99.90;;;;;;4950895;28;20693;-77
2022/06/09 01:24:26;;;;;;;3.83;2.57;;;13.90;99.90;;;;;;4959181;28;20208;-76
2022/06/09 01:27:34;;;;;;;4.87;2.50;;;13.80;99.90;;;;;;4950488;28;20201;-76
2022/06/09 01:30:14;;;;;;;5.73;2.50;;;13.80;99.90;;;;;;4952616;28;20204;-76
2022/06/09 01:33:10;;;;;;;7.10;2.53;;;13.80;99.90;;;;;;4949681;28;20205;-76
2022/06/09 01:35:56;;;;;;;4.03;2.57;;;13.70;99.90;;;;;;4946994;28;20304;-76
2022/06/09 01:38:22;;;;;;;6.63;2.57;;;13.70;99.90;;;;;;4946189;28;20222;-76
2022/06/09 01:40:49;;;;;;;4.53;2.30;;;13.60;99.90;;;;;;4960627;28;20214;-76
2022/06/09 01:43:16;;;;;;;4.63;2.80;;;13.50;99.90;;;;;;4951429;28;20198;-78
2022/06/09 01:46:09;;;;;;;4.10;2.60;;;13.50;99.90;;;;;;4950987;28;20201;-74
2022/06/09 01:48:36;;;;;;;3.80;2.53;;;13.50;99.90;;;;;;4952845;28;20210;-75
2022/06/09 01:51:10;;;;;;;6.50;2.50;;;13.50;99.90;;;;;;4951417;28;20229;-76
2022/06/09 01:53:42;;;;;;;4.07;2.80;;;13.50;99.90;;;;;;4953030;28;20223;-76
2022/06/09 01:56:15;;;;;;;4.70;2.80;;;13.40;99.90;;;;;;4951838;28;20256;-76
2022/06/09 01:58:47;;;;;;;5.13;2.27;;;13.40;99.90;;;;;;4952962;28;20232;-76
2022/06/09 02:01:17;;;;;;;6.00;3.90;;;13.30;99.90;;;;;;4950504;28;20227;-76
2022/06/09 02:03:48;;;;;;;5.90;3.10;;;13.30;99.90;;;;;;4955087;28;20202;-75
2022/06/09 02:06:17;;;;;;;3.57;2.80;;;13.30;99.90;;;;;;4945658;28;20202;-76
2022/06/09 02:08:43;;;;;;;10.50;2.80;;;13.30;99.90;;;;;;4959316;28;20205;-76
2022/06/09 02:11:12;;;;;;;6.70;2.83;;;13.30;99.90;;;;;;4944589;28;20611;-76
2022/06/09 02:13:43;;;;;;;5.20;2.97;;;13.30;99.90;;;;;;4952325;28;20204;-77
2022/06/09 02:16:16;;;;;;;3.80;3.00;;;13.30;99.90;;;;;;4953417;28;20202;-76
2022/06/09 02:18:46;;;;;;;4.17;2.97;;;13.20;99.90;;;;;;4954857;28;20286;-76
2022/06/09 02:21:19;;;;;;;5.37;3.00;;;13.30;99.90;;;;;;4943902;28;20668;-78
2022/06/09 02:23:52;;;;;;;4.80;2.60;;;13.20;99.90;;;;;;4949700;28;20204;-77
2022/06/09 02:26:20;;;;;;;4.43;2.87;;;13.00;99.90;;;;;;4950714;28;20193;-76
2022/06/09 02:28:47;;;;;;;6.97;2.97;;;13.00;99.90;;;;;;4950023;28;20723;-76
2022/06/09 02:31:15;;;;;;;4.40;2.80;;;13.10;99.90;;;;;;4949765;28;20216;-76
2022/06/09 02:33:43;;;;;;;5.43;2.87;;;13.10;99.90;;;;;;4951620;28;20343;-76
2022/06/09 02:36:09;;;;;;;5.97;2.60;;;13.00;99.90;;;;;;4950720;28;20202;-77
2022/06/09 02:38:36;;;;;;;6.17;2.90;;;13.10;99.90;;;;;;4948058;29;20230;-75
2022/06/09 02:41:03;;;;;;;5.10;3.10;;;13.10;99.90;;;;;;4949871;28;20832;-77
2022/06/09 02:43:29;;;;;;;4.00;2.50;;;13.20;99.90;;;;;;4959577;28;20201;-76
2022/06/09 02:45:57;;;;;;;6.90;3.00;;;13.10;99.90;;;;;;4950353;28;20680;-76
2022/06/09 02:48:24;;;;;;;8.27;2.80;;;13.10;99.90;;;;;;4949310;28;20284;-76
2022/06/09 02:50:52;;;;;;;6.93;2.80;;;13.20;99.90;;;;;;4950512;28;20225;-77
2022/06/09 02:53:20;;;;;;;4.87;2.73;;;13.10;99.90;;;;;;4948711;28;20196;-78
2022/06/09 02:55:48;;;;;;;3.03;2.63;;;13.10;99.90;;;;;;4950365;29;20208;-76
2022/06/09 02:58:15;;;;;;;3.87;2.87;;;13.10;99.90;;;;;;4953780;28;20704;-76
2022/06/09 03:00:42;;;;;;;7.47;2.67;;;13.00;99.90;;;;;;4946332;28;20221;-76
2022/06/09 03:03:13;;;;;;;12.07;2.90;;;13.00;99.90;;;;;;4950569;28;20534;-76
2022/06/09 03:05:40;;;;;;;7.00;2.77;;;13.00;99.90;;;;;;4949252;28;20204;-77
2022/06/09 03:08:07;;;;;;;9.83;2.73;;;12.90;99.90;;;;;;4950728;28;20207;-76
2022/06/09 03:10:35;;;;;;;6.63;2.87;;;13.00;99.90;;;;;;4954785;28;20224;-76
2022/06/09 03:13:02;;;;;;;7.83;2.97;;;13.10;99.90;;;;;;4950620;28;20209;-76
2022/06/09 03:15:30;;;;;;;6.90;2.37;;;13.10;99.90;;;;;;4950702;28;20240;-76
2022/06/09 03:17:56;;;;;;;4.33;2.97;;;13.10;99.90;;;;;;4950926;28;20195;-78
2022/06/09 03:20:27;;;;;;;7.23;2.77;;;13.10;99.90;;;;;;4956590;28;20218;-77
2022/06/09 03:22:54;;;;;;;4.67;3.10;;;13.00;99.90;;;;;;4950329;28;20235;-76
2022/06/09 03:25:21;;;;;;;8.67;3.47;;;12.90;99.90;;;;;;4949157;28;21727;-77
2022/06/09 03:27:48;;;;;;;8.03;3.50;;;13.00;99.90;;;;;;4955021;28;20205;-77
2022/06/09 03:30:16;;;;;;;5.60;3.23;;;13.10;99.90;;;;;;4950103;28;20236;-78
2022/06/09 03:32:43;;;;;;;6.70;3.40;;;13.10;99.90;;;;;;4951346;28;20681;-78
2022/06/09 03:35:10;;;;;;;7.13;3.20;;;13.00;99.90;;;;;;4957225;28;20556;-76
2022/06/09 03:37:37;;;;;;;8.33;3.20;;;13.10;99.90;;;;;;4948913;28;20204;-77
2022/06/09 03:40:05;;;;;;;6.70;3.33;;;13.10;99.90;;;;;;4949631;28;20702;-75
2022/06/09 03:42:32;;;;;;;6.43;3.40;;;13.10;99.90;;;;;;4951866;28;20204;-76
2022/06/09 03:44:59;;;;;;;6.03;3.10;;;13.00;99.90;;;;;;4948399;28;20228;-76
2022/06/09 03:47:25;;;;;;;8.33;3.50;;;13.10;99.90;;;;;;4947470;28;20573;-76
2022/06/09 03:49:52;;;;;;;6.23;3.47;;;13.20;99.90;;;;;;4946864;28;20239;-77
2022/06/09 03:52:18;;;;;;;8.47;3.30;;;13.20;99.90;;;;;;4953397;28;20229;-77
2022/06/09 03:54:45;;;;;;;4.63;3.40;;;13.10;99.90;;;;;;4951766;28;20217;-76
2022/06/09 03:57:12;;;;;;;4.90;3.10;;;13.00;99.90;;;;;;4948629;28;20205;-76
2022/06/09 03:59:38;;;;;;;4.90;2.73;;;13.00;99.90;;;;;;4955824;28;20227;-77
2022/06/09 04:02:08;;;;;;;6.93;3.10;;;12.90;99.90;;;;;;4951956;28;20303;-76
2022/06/09 04:04:36;;;;;;;6.00;3.40;;;13.00;99.90;;;;;;4951601;28;20206;-76
2022/06/09 04:07:03;;;;;;;7.67;3.30;;;13.10;99.90;;;;;;4952814;28;20208;-76
2022/06/09 04:09:29;;;;;;;6.97;3.63;;;13.20;99.90;;;;;;4954203;29;20272;-76
2022/06/09 04:11:56;;;;;;;6.40;3.20;;;13.00;99.90;;;;;;4954056;28;20740;-77
2022/06/09 04:14:22;;;;;;;6.37;3.30;;;13.10;99.90;;;;;;4951272;28;20208;-77
2022/06/09 04:16:51;;;;;;;6.70;3.30;;;13.20;99.90;;;;;;4955587;28;20205;-78
2022/06/09 04:19:18;;;;;;;3.47;2.83;;;13.30;99.90;;;;;;4950966;28;20213;-77
2022/06/09 04:21:45;;;;;;;8.30;3.27;;;13.20;99.90;;;;;;4953052;28;20237;-77
2022/06/09 04:24:12;;;;;;;6.53;3.20;;;13.20;99.90;;;;;;4948922;28;21445;-76
2022/06/09 04:26:40;;;;;;;5.40;3.07;;;13.30;99.90;;;;;;4949643;28;20208;-78
2022/06/09 04:29:11;;;;;;;6.07;3.40;;;13.30;99.90;;;;;;4956042;28;20208;-78
2022/06/09 04:31:38;;;;;;;6.80;3.53;;;13.30;99.90;;;;;;4950523;28;20225;-77
2022/06/09 04:34:05;;;;;;;6.37;3.17;;;13.30;99.90;;;;;;4953477;28;20217;-78
2022/06/09 04:36:34;;;;;;;4.37;3.40;;;13.40;99.90;;;;;;4952649;28;20205;-76
2022/06/09 04:39:01;;;;;;;7.30;3.50;;;13.50;99.90;;;;;;4949477;28;20486;-76
2022/06/09 04:41:28;;;;;;;8.27;3.33;;;13.50;99.90;;;;;;4953691;28;20218;-76
2022/06/09 04:43:54;;;;;;;4.90;3.10;;;13.60;99.90;;;;;;4951599;28;20569;-76
2022/06/09 04:46:23;;;;;;;6.73;3.37;;;13.60;99.90;;;;;;4954076;28;20194;-76
2022/06/09 04:48:50;;;;;;;8.40;3.30;;;13.80;99.90;;;;;;4950692;28;20199;-76
2022/06/09 04:51:19;;;;;;;4.87;2.87;;;13.80;99.90;;;;;;4951868;28;20226;-76
2022/06/09 04:53:47;;;;;;;8.97;3.30;;;13.80;99.90;;;;;;4951404;28;20224;-76
2022/06/09 04:56:14;;;;;;;8.63;2.93;;;13.90;99.90;;;;;;4952522;28;20280;-77
2022/06/09 04:58:41;;;;;;;5.17;2.80;;;13.90;99.90;;;;;;4951475;28;20198;-76
2022/06/09 05:01:17;;;;;;;5.03;2.80;;;13.90;99.90;;;;;;4953270;28;20712;-77
2022/06/09 05:03:45;;;;;;;8.70;3.03;;;14.10;99.90;;;;;;4948450;28;20213;-76
2022/06/09 05:06:12;;;;;;;6.73;2.90;;;14.10;99.90;;;;;;4952187;28;20199;-77
2022/06/09 05:08:40;;;;;;;6.90;2.33;;;14.20;99.90;;;;;;4951379;28;20198;-76
2022/06/09 05:11:07;;;;;;;6.47;2.87;;;14.30;99.90;;;;;;4949607;28;20303;-77
2022/06/09 05:13:35;;;;;;;8.77;2.90;;;14.30;99.90;;;;;;4951629;29;20217;-77
2022/06/09 05:16:01;;;;;;;9.13;2.90;;;14.50;99.90;;;;;;4950435;28;20220;-77
2022/06/09 05:18:30;;;;;;;5.30;2.47;;;14.50;99.90;;;;;;4949408;29;20229;-77
2022/06/09 05:20:59;;;;;;;4.80;2.20;;;14.60;99.90;;;;;;4944014;28;20651;-77
2022/06/09 05:23:26;;;;;;;8.53;2.20;;;14.60;99.90;;;;;;4956053;28;20206;-77
2022/06/09 05:25:55;;;;;;;7.57;2.87;;;14.80;99.90;;;;;;4970473;28;20206;-76
2022/06/09 05:28:24;;;;;;;4.53;2.03;;;14.90;99.90;;;;;;4948984;28;20692;-75
2022/06/09 05:30:50;;;;;;;7.03;1.90;;;15.10;99.90;;;;;;4946079;28;20685;-73
2022/06/09 05:33:17;;;;;;;4.50;2.00;;;15.30;99.90;;;;;;4950271;28;20737;-73
2022/06/09 05:35:44;;;;;;;4.10;1.93;;;15.40;99.90;;;;;;4952000;28;20194;-74
2022/06/09 05:46:32;;;;;;;4.03;1.43;;;16.20;99.90;;;;;;4944344;28;20488;-74
2022/06/09 05:48:59;;;;;;;6.10;1.90;;;16.70;99.90;;;;;;4951652;28;20587;-70
2022/06/09 05:51:26;;;;;;;5.87;1.70;;;16.90;99.90;;;;;;4951480;28;20222;-72
2022/06/09 05:53:52;;;;;;;3.07;1.80;;;17.30;99.90;;;;;;4964573;28;20669;-75
2022/06/09 05:56:19;;;;;;;4.93;1.77;;;17.50;99.90;;;;;;4952109;28;21812;-74
2022/06/09 05:58:46;;;;;;;4.23;1.57;;;17.80;99.90;;;;;;4955816;28;20638;-74
2022/06/09 06:01:14;;;;;;;4.70;1.70;;;17.80;99.90;;;;;;4947532;28;20224;-75
2022/06/09 06:03:41;;;;;;;5.57;1.57;;;18.00;99.90;;;;;;4949082;28;20202;-73
2022/06/09 06:08:54;;;;;;;6.53;1.70;;;17.80;99.90;;;;;;4951030;28;20206;-74
2022/06/09 06:11:21;;;;;;;5.97;1.60;;;17.40;99.90;;;;;;4948944;28;20214;-73
2022/06/09 06:13:48;;;;;;;6.47;1.80;;;17.30;99.90;;;;;;4948711;28;20584;-73
2022/06/09 06:16:16;;;;;;;6.93;1.90;;;17.40;99.90;;;;;;4950963;28;20194;-73
2022/06/09 06:19:01;;;;;;;2.87;1.60;;;17.40;99.90;;;;;;4939026;28;20200;-70
2022/06/09 06:21:27;;;;;;;5.37;1.70;;;17.30;99.90;;;;;;4945030;28;20293;-72
2022/06/09 06:23:55;;;;;;;5.60;2.00;;;17.20;99.90;;;;;;4940837;28;20206;-74
2022/06/09 06:26:22;;;;;;;3.47;1.70;;;17.30;99.90;;;;;;4951809;28;20233;-74
2022/06/09 06:28:50;;;;;;;6.67;1.90;;;17.40;99.90;;;;;;4952416;28;20195;-75
2022/06/09 06:31:17;;;;;;;4.37;1.73;;;17.40;99.90;;;;;;4942349;28;20218;-74
2022/06/09 06:33:44;;;;;;;4.70;1.67;;;17.40;99.90;;;;;;4937527;28;20765;-73
2022/06/09 06:36:10;;;;;;;7.27;1.70;;;17.50;99.90;;;;;;4945473;28;20194;-74
2022/06/09 06:38:38;;;;;;;4.63;1.50;;;17.80;99.90;;;;;;4940964;28;20199;-75
2022/06/09 06:41:10;;;;;;;6.60;1.80;;;18.40;99.90;;;;;;4946866;28;20232;-75
2022/06/09 06:43:45;;;;;;;4.37;1.77;;;18.70;99.90;;;;;;4937866;28;20324;-74
2022/06/09 06:46:13;;;;;;;3.53;1.40;;;18.90;99.90;;;;;;4948204;28;20318;-74
2022/06/09 06:48:40;;;;;;;5.93;1.83;;;19.00;99.90;;;;;;4947465;28;20203;-73
2022/06/09 06:51:06;;;;;;;2.43;1.30;;;18.80;99.90;;;;;;4941885;28;20385;-74
2022/06/09 06:53:34;;;;;;;6.20;1.57;;;19.00;99.90;;;;;;4945863;28;20206;-74
2022/06/09 06:56:02;;;;;;;6.03;1.73;;;19.10;99.90;;;;;;4948983;28;20205;-74
2022/06/09 06:58:29;;;;;;;4.53;1.60;;;19.20;99.90;;;;;;4948815;28;20269;-75
2022/06/09 07:00:58;;;;;;;5.95;1.70;;;19.40;99.90;;;;;;4945710;28;20229;-75
2022/06/09 07:03:25;;;;;;;3.17;1.52;;;19.60;99.90;;;;;;4949364;28;20794;-73
2022/06/09 07:06:00;;;;;;;4.75;1.90;;;19.90;99.90;;;;;;4947343;28;21745;-71
2022/06/09 07:08:27;;;;;;;3.28;1.52;;;19.90;99.90;;;;;;4949927;28;20224;-73
2022/06/09 07:10:55;;;;;;;5.33;1.73;;;19.80;99.90;;;;;;4943521;28;20225;-75
2022/06/09 07:13:22;;;;;;;7.72;2.10;;;19.70;99.90;;;;;;4943587;28;20796;-73
2022/06/09 07:15:49;;;;;;;2.83;1.50;;;19.50;99.90;;;;;;4949830;28;20213;-73
2022/06/09 07:18:16;;;;;;;6.20;1.60;;;18.90;99.90;;;;;;4950633;28;20212;-73
2022/06/09 07:20:43;;;;;;;6.53;2.13;;;19.00;99.90;;;;;;4942575;28;20226;-76
2022/06/09 07:23:10;;;;;;;5.07;2.17;;;19.40;99.90;;;;;;4946392;28;20206;-74
2022/06/09 07:25:37;;;;;;;4.80;2.10;;;19.10;99.90;;;;;;4946169;28;20205;-72
2022/06/09 07:28:04;;;;;;;4.80;1.70;;;19.00;99.90;;;;;;4943194;28;20202;-72
2022/06/09 07:30:31;;;;;;;3.63;1.50;;;18.60;99.90;;;;;;4945985;28;20230;-72
2022/06/09 07:32:58;;;;;;;5.70;2.00;;;18.50;99.90;;;;;;4949775;28;20194;-74
2022/06/09 07:35:32;;;;;;;4.60;2.10;;;18.40;99.90;;;;;;4945207;28;20678;-73
2022/06/09 07:37:59;;;;;;;4.63;1.70;;;18.20;99.90;;;;;;4946176;28;20229;-75
2022/06/09 07:40:26;;;;;;;4.33;1.70;;;18.20;99.90;;;;;;4948913;28;20234;-73
2022/06/09 07:42:52;;;;;;;10.20;1.93;;;18.20;99.90;;;;;;4947195;28;20419;-76
2022/06/09 07:45:19;;;;;;;7.37;1.83;;;18.30;99.90;;;;;;4942825;28;20210;-73
2022/06/09 07:47:46;;;;;;;4.03;1.90;;;18.50;99.90;;;;;;4942164;28;24158;-77
2022/06/09 07:50:14;;;;;;;8.70;2.10;;;18.60;99.90;;;;;;4946264;28;20202;-71
2022/06/09 07:52:44;;;;;;;3.93;1.77;;;18.60;99.90;;;;;;4946929;28;20237;-74
2022/06/09 07:55:12;;;;;;;5.97;1.93;;;18.40;99.90;;;;;;4943999;28;20210;-71
2022/06/09 07:57:39;;;;;;;3.37;1.77;;;18.10;99.90;;;;;;4942628;28;20237;-73
2022/06/09 08:00:08;;;;;;;4.80;2.00;;;18.00;99.90;;;;;;4945258;28;20215;-71
2022/06/09 08:02:35;;;;;;;5.03;2.00;;;17.90;99.90;;;;;;4942405;28;20209;-76
2022/06/09 08:05:02;;;;;;;6.73;2.10;;;18.00;99.90;;;;;;4946019;28;20194;-73
2022/06/09 08:07:29;;;;;;;6.37;1.87;;;18.00;99.90;;;;;;4946082;28;20245;-73
2022/06/09 08:09:56;;;;;;;5.00;1.97;;;18.30;99.90;;;;;;4949299;28;20216;-73
2022/06/09 08:12:22;;;;;;;6.17;2.50;;;18.40;99.90;;;;;;4948363;28;20665;-73
2022/06/09 08:14:49;;;;;;;5.80;2.30;;;18.80;99.90;;;;;;4944305;28;20402;-76
2022/06/09 08:17:15;;;;;;;2.93;1.83;;;18.90;99.90;;;;;;4942749;28;20198;-74
2022/06/09 08:19:44;;;;;;;7.13;2.33;;;18.80;99.90;;;;;;4941524;28;20218;-73
2022/06/09 08:22:11;;;;;;;5.20;2.00;;;18.80;99.90;;;;;;4936724;28;21649;-74
2022/06/09 08:24:37;;;;;;;6.63;2.10;;;18.60;99.90;;;;;;4935292;28;20253;-74
2022/06/09 08:27:04;;;;;;;6.60;2.00;;;18.90;99.90;;;;;;4938831;28;20195;-75
2022/06/09 08:29:31;;;;;;;4.93;2.03;;;18.80;99.90;;;;;;4940504;28;20198;-75
2022/06/09 08:31:58;;;;;;;4.90;1.80;;;18.80;99.90;;;;;;4932380;28;20225;-73
2022/06/09 08:34:25;;;;;;;3.90;2.28;;;19.00;99.90;;;;;;4940087;28;20206;-75
2022/06/09 08:36:52;;;;;;;5.70;1.80;;;19.30;99.90;;;;;;4942600;28;20681;-74
2022/06/09 08:39:19;;;;;;;6.03;1.80;;;19.80;99.90;;;;;;4944996;28;20577;-74
2022/06/09 08:41:50;;;;;;;9.15;1.90;;;19.60;99.90;;;;;;4948815;28;20221;-74
2022/06/09 08:44:25;;;;;;;3.70;1.80;;;19.80;99.90;;;;;;4947387;28;20251;-73
2022/06/09 08:47:24;;;;;;;3.80;1.50;;;20.00;99.90;;;;;;4950139;28;20831;-72
2022/06/09 08:50:05;;;;;;;7.70;1.83;;;19.90;99.90;;;;;;4944771;28;20684;-72
2022/06/09 08:52:43;;;;;;;5.13;1.98;;;19.90;99.90;;;;;;4952682;28;20201;-73
2022/06/09 08:55:27;;;;;;;2.40;1.30;;;20.00;99.90;;;;;;4949670;28;20206;-72
2022/06/09 08:57:59;;;;;;;4.53;1.55;;;19.90;99.90;;;;;;4948855;28;20213;-72
2022/06/09 09:00:33;;;;;;;3.05;1.80;;;19.80;99.90;;;;;;4947938;28;20226;-73
2022/06/09 09:03:05;;;;;;;6.18;1.92;;;19.50;99.90;;;;;;4952280;28;20670;-73
2022/06/09 09:05:53;;;;;;;3.25;1.42;;;19.80;99.90;;;;;;4947013;28;20211;-75
2022/06/09 09:08:19;;;;;;;8.02;1.75;;;20.00;99.90;;;;;;4949032;28;20205;-76
2022/06/09 09:11:19;;;;;;;4.70;1.50;;;20.30;99.90;;;;;;4950734;28;20218;-74
2022/06/09 09:14:00;;;;;;;4.38;1.48;;;20.30;99.90;;;;;;4946038;28;20677;-74
2022/06/09 09:16:41;;;;;;;2.55;1.50;;;20.40;99.90;;;;;;4950292;28;20206;-76
2022/06/09 09:19:28;;;;;;;2.67;1.30;;;20.50;99.90;;;;;;4946094;28;20209;-74
2022/06/09 09:22:13;;;;;;;4.85;1.50;;;20.90;99.90;;;;;;4948045;28;20694;-74
2022/06/09 09:24:48;;;;;;;2.90;1.63;;;21.00;99.90;;;;;;4944787;28;20206;-74
2022/06/09 09:27:38;;;;;;;3.55;1.40;;;21.10;99.90;;;;;;4945862;28;20203;-75
2022/06/09 09:30:19;;;;;;;3.75;1.33;;;21.10;99.90;;;;;;4914803;28;20221;-73
2022/06/09 09:32:50;;;;;;;3.97;1.45;;;21.00;99.90;;;;;;4946089;28;20710;-75
2022/06/09 09:35:31;;;;;;;3.05;1.48;;;20.40;99.90;;;;;;4947703;28;20209;-73
2022/06/09 09:37:59;;;;;;;5.22;1.77;;;20.10;99.90;;;;;;4948667;28;20210;-73
2022/06/09 09:40:31;;;;;;;2.10;1.45;;;19.50;99.90;;;;;;4943856;28;20226;-74
2022/06/09 09:43:02;;;;;;;3.88;1.80;;;19.30;99.90;;;;;;4946854;28;20195;-73
2022/06/09 09:45:35;;;;;;;3.15;1.60;;;19.30;99.90;;;;;;4946848;28;20199;-72
2022/06/09 09:48:06;;;;;;;5.15;1.63;;;19.20;99.90;;;;;;4949084;29;20198;-72
2022/06/09 09:50:37;;;;;;;2.53;1.60;;;19.20;99.90;;;;;;4950374;28;20225;-76
2022/06/09 09:53:19;;;;;;;5.38;1.70;;;19.40;99.90;;;;;;4948952;28;20215;-73
2022/06/09 09:55:53;;;;;;;3.87;1.77;;;19.20;99.90;;;;;;4944121;28;20209;-73
2022/06/09 09:58:26;;;;;;;4.03;1.73;;;19.10;99.90;;;;;;4949692;28;20249;-74
2022/06/09 10:01:06;;;;;;;4.13;1.80;;;19.30;99.90;;;;;;4949528;28;20222;-74
2022/06/09 10:09:55;;;;;;;4.75;2.00;;;19.40;99.90;;;;;;4948592;28;20201;-72
2022/06/09 10:12:39;;;;;;;5.07;1.70;;;20.00;99.90;;;;;;4939522;28;20189;-73
2022/06/09 10:15:26;;;;;;;4.07;2.00;;;19.90;99.90;;;;;;4944912;28;20676;-75
2022/06/09 10:18:07;;;;;;;3.28;1.90;;;19.90;99.90;;;;;;4948457;28;20190;-76
2022/06/09 10:20:51;;;;;;;3.35;1.70;;;20.10;99.90;;;;;;4947345;28;20597;-75
2022/06/09 10:23:25;;;;;;;5.40;2.10;;;20.40;99.90;;;;;;4951792;28;20198;-74
2022/06/09 10:26:10;;;;;;;2.97;1.60;;;20.30;99.90;;;;;;4948524;28;20202;-75
2022/06/09 10:28:58;;;;;;;4.85;1.90;;;20.50;99.90;;;;;;4956437;28;20198;-76
2022/06/09 10:31:34;;;;;;;4.03;1.98;;;20.90;99.90;;;;;;4940233;28;20580;-74
2022/06/09 10:34:17;;;;;;;3.80;2.13;;;21.00;99.90;;;;;;4940449;28;20693;-75
2022/06/09 10:37:09;;;;;;;6.05;1.90;;;21.20;99.90;;;;;;4940234;28;20211;-74
2022/06/09 10:39:57;;;;;;;4.25;2.00;;;21.70;99.90;;;;;;4940522;28;20580;-76
2022/06/09 10:42:26;;;;;;;3.97;2.08;;;22.00;99.90;;;;;;4939449;28;20210;-75
2022/06/09 10:45:18;;;;;;;2.60;1.85;;;22.40;99.90;;;;;;4937320;28;20206;-74
2022/06/09 10:57:26;;;;;;;6.03;2.80;;;21.70;99.90;;;;;;4939298;28;20198;-76
2022/06/09 11:00:00;;;;;;;5.18;2.40;;;21.70;99.90;;;;;;4935845;28;20658;-74
2022/06/09 11:02:30;;;;;;;3.72;2.03;;;22.10;99.90;;;;;;4939393;28;20197;-74
2022/06/09 11:04:59;;;;;;;3.13;1.70;;;22.10;99.90;;;;;;4940696;28;20711;-74
2022/06/09 11:07:37;;;;;;;7.07;1.95;;;22.30;99.90;;;;;;4936182;28;20198;-75
2022/06/09 11:10:10;;;;;;;4.43;1.90;;;22.60;99.90;;;;;;4939931;28;20201;-76
2022/06/09 11:12:58;;;;;;;3.13;1.83;;;22.50;99.90;;;;;;4941992;28;20209;-76
2022/06/09 11:15:47;;;;;;;3.05;1.70;;;22.40;99.90;;;;;;4938854;28;20277;-75
2022/06/09 11:18:25;;;;;;;4.05;1.80;;;22.30;99.90;;;;;;4943213;28;20205;-71
2022/06/09 11:21:12;;;;;;;7.38;2.20;;;22.50;99.90;;;;;;4938676;28;20450;-73
2022/06/09 11:24:04;;;;;;;5.55;2.13;;;22.70;99.90;;;;;;4945182;28;20221;-74
2022/06/09 11:26:52;;;;;;;3.05;1.77;;;22.50;99.90;;;;;;4938464;28;20202;-75
2022/06/09 11:29:31;;;;;;;4.80;2.30;;;22.30;99.90;;;;;;4957182;28;20257;-75
2022/06/09 11:32:18;;;;;;;5.40;2.33;;;22.50;99.90;;;;;;4937636;28;20269;-73
2022/06/09 11:35:17;;;;;;;6.45;2.22;;;23.40;99.90;;;;;;4940993;28;20204;-75
2022/06/09 11:38:02;;;;;;;3.90;2.30;;;23.50;99.90;;;;;;4941782;28;20213;-73
2022/06/09 11:40:32;;;;;;;2.58;2.00;;;23.50;99.90;;;;;;4946223;28;20222;-72
2022/06/09 11:43:25;;;;;;;3.13;1.60;;;23.60;99.90;;;;;;4946834;28;20214;-73
2022/06/09 11:45:58;;;;;;;5.07;1.73;;;23.20;99.90;;;;;;4934773;28;20198;-76
2022/06/09 11:48:31;;;;;;;3.10;1.60;;;23.30;99.90;;;;;;4947402;28;20561;-73
2022/06/09 11:51:00;;;;;;;4.50;1.60;;;23.30;99.90;;;;;;4943049;28;20232;-76
2022/06/09 11:53:30;;;;;;;4.55;1.60;;;24.10;99.90;;;;;;4943811;28;20212;-73
2022/06/09 11:56:36;;;;;;;2.55;1.50;;;24.40;99.90;;;;;;4945990;28;20202;-73
2022/06/09 11:59:15;;;;;;;8.50;2.15;;;24.40;99.90;;;;;;4947462;28;20646;-73
2022/06/09 12:01:49;;;;;;;3.72;1.60;;;23.40;99.90;;;;;;4946870;28;20236;-75
2022/06/09 12:04:41;;;;;;;4.15;1.80;;;23.10;99.90;;;;;;4942305;28;20205;-70
2022/06/09 12:07:39;;;;;;;3.90;2.00;;;22.60;99.90;;;;;;4948124;28;20202;-74
2022/06/09 12:10:47;;;;;;;3.47;1.60;;;22.10;99.90;;;;;;4941126;28;20197;-74
2022/06/09 12:13:24;;;;;;;2.97;1.52;;;20.90;99.90;;;;;;4946620;28;20197;-74
2022/06/09 12:15:56;;;;;;;3.33;1.55;;;19.90;99.90;;;;;;4945630;28;20217;-75
2022/06/09 12:18:37;;;;;;;3.72;1.70;;;19.30;99.90;;;;;;4946020;28;20202;-73
2022/06/09 12:21:11;;;;;;;4.23;1.50;;;18.80;99.90;;;;;;4947801;28;20244;-73
2022/06/09 12:23:43;;;;;;;2.03;1.00;;;18.70;99.90;;;;;;4946481;28;20216;-72
2022/06/09 12:26:10;;;;;;;3.13;0.95;;;18.90;99.90;;;;;;4952336;28;20202;-74
2022/06/09 12:28:49;;;;;;;2.40;1.13;;;19.10;99.90;;;;;;4945560;28;20197;-77
2022/06/09 12:31:30;;;;;;;3.23;1.30;;;19.10;99.90;;;;;;4947675;28;20264;-73
2022/06/09 12:34:19;;;;;;;2.60;1.90;;;19.10;99.90;;;;;;4947804;28;20197;-73
2022/06/09 12:36:55;;;;;;;4.88;1.60;;;19.70;99.90;;;;;;4947245;28;20198;-73
2022/06/09 12:39:23;;;;;;;1.35;1.15;;;20.60;99.90;;;;;;4948720;28;20205;-74
2022/06/09 12:41:58;;;;;;;4.28;1.48;;;21.30;99.90;;;;;;4948302;28;20648;-75
2022/06/09 12:44:32;;;;;;;4.53;1.27;;;22.00;99.90;;;;;;4949086;28;20205;-73
2022/06/09 12:47:21;;;;;;;3.13;1.10;;;22.60;99.90;;;;;;4952267;28;20199;-74
2022/06/09 12:49:56;;;;;;;3.70;1.15;;;23.00;99.90;;;;;;4942371;28;20194;-73
2022/06/09 12:52:39;;;;;;;2.20;1.02;;;23.60;99.90;;;;;;4948027;28;20619;-72
2022/06/09 12:55:20;;;;;;;3.20;1.20;;;24.20;99.90;;;;;;4950087;29;20261;-72
2022/06/09 12:57:51;;;;;;;1.75;0.90;;;24.80;99.90;;;;;;4948581;28;20213;-74
2022/06/09 13:00:21;;;;;;;2.58;0.90;;;24.50;99.90;;;;;;4947236;28;20218;-73
2022/06/09 13:02:49;;;;;;;1.23;0.90;;;24.40;99.90;;;;;;4950255;28;20272;-76
2022/06/09 13:05:24;;;;;;;3.20;1.25;;;24.20;99.90;;;;;;4947227;28;20205;-74
2022/06/09 13:07:53;;;;;;;3.97;1.40;;;23.80;99.90;;;;;;4950604;28;20201;-72
2022/06/09 13:10:23;;;;;;;2.92;1.30;;;23.70;99.90;;;;;;4949184;28;20214;-75
2022/06/09 13:12:55;;;;;;;3.20;1.63;;;23.60;99.90;;;;;;4949431;28;20612;-72
2022/06/09 13:15:36;;;;;;;3.00;1.50;;;23.20;99.90;;;;;;4948247;28;20198;-72
2022/06/09 13:18:21;;;;;;;2.53;1.63;;;22.70;99.90;;;;;;4939807;28;20207;-74
2022/06/09 13:21:16;;;;;;;4.50;1.65;;;22.30;99.90;;;;;;4948163;28;20282;-77
2022/06/09 13:23:45;;;;;;;5.30;1.60;;;22.30;99.90;;;;;;4948948;28;20274;-77
2022/06/09 13:26:15;;;;;;;4.40;1.60;;;22.60;99.90;;;;;;4966245;28;20202;-78
2022/06/09 13:28:46;;;;;;;2.22;1.40;;;23.10;99.90;;;;;;4948240;28;20421;-75
2022/06/09 13:31:36;;;;;;;4.65;1.33;;;23.20;99.90;;;;;;4946145;28;20229;-75
2022/06/09 13:34:11;;;;;;;1.77;1.00;;;23.20;99.90;;;;;;4949674;28;20213;-78
2022/06/09 13:36:56;;;;;;;2.88;1.08;;;23.60;99.90;;;;;;4952355;28;20692;-75
2022/06/09 13:39:37;;;;;;;1.05;0.70;;;23.80;99.90;;;;;;4951923;28;20209;-80